sensor_id;sensor_type;location;lat;lon;timestamp;P1;durP1;ratioP1;P2;durP2;ratioP2
29314;SDS011;16320;53.954;9.506;2023-08-06T00:01:44;6.72;;;3.20;;
29314;SDS011;16320;53.954;9.506;2023-08-06T00:04:48;5.15;;;2.85;;
29314;SDS011;16320;53.954;9.506;2023-08-06T00:07:52;4.53;;;2.75;;
29314;SDS011;16320;53.954;9.506;2023-08-06T00:10:56;3.38;;;2.60;;
29314;SDS011;16320;53.954;9.506;2023-08-06T00:14:01;3.28;;;2.97;;
29314;SDS011;16320;53.954;9.506;2023-08-06T00:17:05;4.75;;;3.17;;
29314;SDS011;16320;53.954;9.506;2023-08-06T00:20:10;6.38;;;3.38;;
29314;SDS011;16320;53.954;9.506;2023-08-06T00:23:14;5.18;;;3.33;;
29314;SDS011;16320;53.954;9.506;2023-08-06T00:26:19;3.70;;;2.95;;
29314;SDS011;16320;53.954;9.506;2023-08-06T00:29:23;4.63;;;3.50;;
29314;SDS011;16320;53.954;9.506;2023-08-06T00:32:28;4.93;;;2.95;;
29314;SDS011;16320;53.954;9.506;2023-08-06T00:35:32;9.40;;;3.42;;
29314;SDS011;16320;53.954;9.506;2023-08-06T00:38:37;4.07;;;2.63;;
29314;SDS011;16320;53.954;9.506;2023-08-06T00:41:41;6.32;;;3.78;;
29314;SDS011;16320;53.954;9.506;2023-08-06T00:44:45;4.28;;;2.97;;
29314;SDS011;16320;53.954;9.506;2023-08-06T00:47:51;4.13;;;2.70;;
29314;SDS011;16320;53.954;9.506;2023-08-06T00:50:57;9.10;;;4.32;;
29314;SDS011;16320;53.954;9.506;2023-08-06T00:54:03;5.88;;;3.42;;
29314;SDS011;16320;53.954;9.506;2023-08-06T00:57:08;6.78;;;3.50;;
29314;SDS011;16320;53.954;9.506;2023-08-06T01:00:13;7.60;;;4.00;;
29314;SDS011;16320;53.954;9.506;2023-08-06T01:03:17;5.25;;;3.53;;
29314;SDS011;16320;53.954;9.506;2023-08-06T01:06:24;4.82;;;3.50;;
29314;SDS011;16320;53.954;9.506;2023-08-06T01:09:57;4.32;;;3.60;;
29314;SDS011;16320;53.954;9.506;2023-08-06T01:16:46;6.75;;;3.70;;
29314;SDS011;16320;53.954;9.506;2023-08-06T01:19:54;4.03;;;3.63;;
29314;SDS011;16320;53.954;9.506;2023-08-06T01:22:59;4.75;;;3.58;;
29314;SDS011;16320;53.954;9.506;2023-08-06T01:29:34;5.63;;;3.28;;
29314;SDS011;16320;53.954;9.506;2023-08-06T01:32:46;4.10;;;3.60;;
29314;SDS011;16320;53.954;9.506;2023-08-06T01:35:57;5.40;;;3.65;;
29314;SDS011;16320;53.954;9.506;2023-08-06T01:39:03;7.05;;;5.05;;
29314;SDS011;16320;53.954;9.506;2023-08-06T01:42:09;7.60;;;4.25;;
29314;SDS011;16320;53.954;9.506;2023-08-06T01:45:14;10.48;;;4.13;;
29314;SDS011;16320;53.954;9.506;2023-08-06T01:48:18;10.43;;;4.25;;
29314;SDS011;16320;53.954;9.506;2023-08-06T01:51:23;5.15;;;3.83;;
29314;SDS011;16320;53.954;9.506;2023-08-06T01:54:28;7.63;;;3.97;;
29314;SDS011;16320;53.954;9.506;2023-08-06T01:57:33;5.43;;;3.88;;
29314;SDS011;16320;53.954;9.506;2023-08-06T02:03:42;5.55;;;3.83;;
29314;SDS011;16320;53.954;9.506;2023-08-06T02:06:47;5.47;;;4.50;;
29314;SDS011;16320;53.954;9.506;2023-08-06T02:09:51;5.60;;;4.10;;
29314;SDS011;16320;53.954;9.506;2023-08-06T02:12:55;6.63;;;4.45;;
29314;SDS011;16320;53.954;9.506;2023-08-06T02:16:00;12.40;;;4.65;;
29314;SDS011;16320;53.954;9.506;2023-08-06T02:19:04;6.20;;;3.80;;
29314;SDS011;16320;53.954;9.506;2023-08-06T02:22:09;7.00;;;4.25;;
29314;SDS011;16320;53.954;9.506;2023-08-06T02:25:13;7.40;;;4.43;;
29314;SDS011;16320;53.954;9.506;2023-08-06T02:28:18;7.07;;;4.53;;
29314;SDS011;16320;53.954;9.506;2023-08-06T02:31:22;5.13;;;4.03;;
29314;SDS011;16320;53.954;9.506;2023-08-06T02:34:27;4.97;;;4.38;;
29314;SDS011;16320;53.954;9.506;2023-08-06T02:37:33;5.65;;;3.97;;
29314;SDS011;16320;53.954;9.506;2023-08-06T02:40:47;5.50;;;3.92;;
29314;SDS011;16320;53.954;9.506;2023-08-06T02:43:52;6.17;;;4.70;;
29314;SDS011;16320;53.954;9.506;2023-08-06T02:46:57;7.47;;;4.40;;
29314;SDS011;16320;53.954;9.506;2023-08-06T02:50:01;5.88;;;4.53;;
29314;SDS011;16320;53.954;9.506;2023-08-06T02:53:06;6.32;;;4.50;;
29314;SDS011;16320;53.954;9.506;2023-08-06T02:56:12;7.47;;;4.90;;
29314;SDS011;16320;53.954;9.506;2023-08-06T02:59:17;7.65;;;4.75;;
29314;SDS011;16320;53.954;9.506;2023-08-06T03:02:21;5.43;;;4.10;;
29314;SDS011;16320;53.954;9.506;2023-08-06T03:05:25;9.13;;;5.13;;
29314;SDS011;16320;53.954;9.506;2023-08-06T03:08:30;8.50;;;5.05;;
29314;SDS011;16320;53.954;9.506;2023-08-06T03:11:34;9.40;;;5.53;;
29314;SDS011;16320;53.954;9.506;2023-08-06T03:14:39;10.02;;;5.38;;
29314;SDS011;16320;53.954;9.506;2023-08-06T03:17:43;10.77;;;5.45;;
29314;SDS011;16320;53.954;9.506;2023-08-06T03:20:48;6.45;;;5.75;;
29314;SDS011;16320;53.954;9.506;2023-08-06T03:23:53;8.68;;;5.88;;
29314;SDS011;16320;53.954;9.506;2023-08-06T03:26:58;10.25;;;5.75;;
29314;SDS011;16320;53.954;9.506;2023-08-06T03:30:03;9.57;;;5.80;;
29314;SDS011;16320;53.954;9.506;2023-08-06T03:33:07;8.27;;;5.80;;
29314;SDS011;16320;53.954;9.506;2023-08-06T03:36:12;8.63;;;5.63;;
29314;SDS011;16320;53.954;9.506;2023-08-06T03:39:17;7.68;;;5.70;;
29314;SDS011;16320;53.954;9.506;2023-08-06T03:42:21;8.98;;;5.90;;
29314;SDS011;16320;53.954;9.506;2023-08-06T03:45:26;8.68;;;5.65;;
29314;SDS011;16320;53.954;9.506;2023-08-06T03:48:31;7.65;;;5.30;;
29314;SDS011;16320;53.954;9.506;2023-08-06T03:51:35;8.90;;;6.07;;
29314;SDS011;16320;53.954;9.506;2023-08-06T03:57:44;9.60;;;5.97;;
29314;SDS011;16320;53.954;9.506;2023-08-06T04:00:56;9.18;;;5.10;;
29314;SDS011;16320;53.954;9.506;2023-08-06T04:04:03;7.18;;;4.93;;
29314;SDS011;16320;53.954;9.506;2023-08-06T04:07:08;8.73;;;5.45;;
29314;SDS011;16320;53.954;9.506;2023-08-06T04:10:12;9.77;;;5.60;;
29314;SDS011;16320;53.954;9.506;2023-08-06T04:17:06;12.75;;;5.72;;
29314;SDS011;16320;53.954;9.506;2023-08-06T04:20:11;12.02;;;5.93;;
29314;SDS011;16320;53.954;9.506;2023-08-06T04:23:16;6.18;;;4.82;;
29314;SDS011;16320;53.954;9.506;2023-08-06T04:26:20;10.80;;;5.35;;
29314;SDS011;16320;53.954;9.506;2023-08-06T04:29:25;11.43;;;6.13;;
29314;SDS011;16320;53.954;9.506;2023-08-06T04:32:30;7.03;;;5.05;;
29314;SDS011;16320;53.954;9.506;2023-08-06T04:35:35;7.50;;;5.72;;
29314;SDS011;16320;53.954;9.506;2023-08-06T04:38:40;14.65;;;6.65;;
29314;SDS011;16320;53.954;9.506;2023-08-06T04:41:48;8.27;;;5.85;;
29314;SDS011;16320;53.954;9.506;2023-08-06T04:44:53;11.30;;;5.45;;
29314;SDS011;16320;53.954;9.506;2023-08-06T04:47:58;7.43;;;5.07;;
29314;SDS011;16320;53.954;9.506;2023-08-06T04:51:02;9.15;;;5.05;;
29314;SDS011;16320;53.954;9.506;2023-08-06T04:54:06;8.80;;;5.13;;
29314;SDS011;16320;53.954;9.506;2023-08-06T04:57:11;7.32;;;5.20;;
29314;SDS011;16320;53.954;9.506;2023-08-06T05:00:16;10.05;;;5.60;;
29314;SDS011;16320;53.954;9.506;2023-08-06T05:03:22;8.00;;;6.00;;
29314;SDS011;16320;53.954;9.506;2023-08-06T05:06:27;7.90;;;4.75;;
29314;SDS011;16320;53.954;9.506;2023-08-06T05:09:32;6.72;;;5.43;;
29314;SDS011;16320;53.954;9.506;2023-08-06T05:12:37;10.40;;;5.35;;
29314;SDS011;16320;53.954;9.506;2023-08-06T05:15:41;7.95;;;4.78;;
29314;SDS011;16320;53.954;9.506;2023-08-06T05:18:47;7.43;;;4.93;;
29314;SDS011;16320;53.954;9.506;2023-08-06T05:21:51;5.88;;;4.78;;
29314;SDS011;16320;53.954;9.506;2023-08-06T05:24:56;7.97;;;4.68;;
29314;SDS011;16320;53.954;9.506;2023-08-06T05:28:02;8.50;;;5.07;;
29314;SDS011;16320;53.954;9.506;2023-08-06T05:31:08;9.30;;;5.13;;
29314;SDS011;16320;53.954;9.506;2023-08-06T05:34:12;6.70;;;4.88;;
29314;SDS011;16320;53.954;9.506;2023-08-06T05:37:17;6.50;;;4.82;;
29314;SDS011;16320;53.954;9.506;2023-08-06T05:40:21;8.57;;;4.50;;
29314;SDS011;16320;53.954;9.506;2023-08-06T05:43:28;8.38;;;4.68;;
29314;SDS011;16320;53.954;9.506;2023-08-06T05:46:33;8.80;;;4.80;;
29314;SDS011;16320;53.954;9.506;2023-08-06T05:49:38;6.80;;;4.70;;
29314;SDS011;16320;53.954;9.506;2023-08-06T05:52:42;9.15;;;4.82;;
29314;SDS011;16320;53.954;9.506;2023-08-06T05:55:47;10.23;;;4.85;;
29314;SDS011;16320;53.954;9.506;2023-08-06T05:58:51;5.65;;;4.50;;
29314;SDS011;16320;53.954;9.506;2023-08-06T06:01:57;7.70;;;4.72;;
29314;SDS011;16320;53.954;9.506;2023-08-06T06:05:02;7.15;;;4.47;;
29314;SDS011;16320;53.954;9.506;2023-08-06T06:08:10;7.13;;;4.82;;
29314;SDS011;16320;53.954;9.506;2023-08-06T06:11:15;9.57;;;4.95;;
29314;SDS011;16320;53.954;9.506;2023-08-06T06:14:19;8.15;;;4.93;;
29314;SDS011;16320;53.954;9.506;2023-08-06T06:17:23;8.27;;;5.43;;
29314;SDS011;16320;53.954;9.506;2023-08-06T06:20:28;8.82;;;5.10;;
29314;SDS011;16320;53.954;9.506;2023-08-06T06:23:32;7.60;;;5.32;;
29314;SDS011;16320;53.954;9.506;2023-08-06T06:26:37;9.13;;;4.78;;
29314;SDS011;16320;53.954;9.506;2023-08-06T06:29:41;8.25;;;5.45;;
29314;SDS011;16320;53.954;9.506;2023-08-06T06:32:46;9.52;;;6.00;;
29314;SDS011;16320;53.954;9.506;2023-08-06T06:35:50;10.18;;;6.18;;
29314;SDS011;16320;53.954;9.506;2023-08-06T06:38:55;10.35;;;5.00;;
29314;SDS011;16320;53.954;9.506;2023-08-06T06:42:01;7.40;;;4.97;;
29314;SDS011;16320;53.954;9.506;2023-08-06T06:45:06;9.15;;;5.50;;
29314;SDS011;16320;53.954;9.506;2023-08-06T06:48:12;10.52;;;5.93;;
29314;SDS011;16320;53.954;9.506;2023-08-06T06:51:16;7.03;;;5.60;;
29314;SDS011;16320;53.954;9.506;2023-08-06T06:54:21;12.02;;;6.13;;
29314;SDS011;16320;53.954;9.506;2023-08-06T06:57:25;13.38;;;7.10;;
29314;SDS011;16320;53.954;9.506;2023-08-06T07:00:30;12.75;;;6.15;;
29314;SDS011;16320;53.954;9.506;2023-08-06T07:03:36;12.32;;;6.07;;
29314;SDS011;16320;53.954;9.506;2023-08-06T07:06:43;12.82;;;6.28;;
29314;SDS011;16320;53.954;9.506;2023-08-06T07:09:48;8.13;;;6.78;;
29314;SDS011;16320;53.954;9.506;2023-08-06T07:12:52;10.43;;;6.60;;
29314;SDS011;16320;53.954;9.506;2023-08-06T07:15:58;12.02;;;6.00;;
29314;SDS011;16320;53.954;9.506;2023-08-06T07:19:03;11.98;;;6.15;;
29314;SDS011;16320;53.954;9.506;2023-08-06T07:22:09;11.07;;;6.20;;
29314;SDS011;16320;53.954;9.506;2023-08-06T07:25:14;8.88;;;5.65;;
29314;SDS011;16320;53.954;9.506;2023-08-06T07:28:21;13.07;;;6.15;;
29314;SDS011;16320;53.954;9.506;2023-08-06T07:31:26;8.52;;;5.93;;
29314;SDS011;16320;53.954;9.506;2023-08-06T07:34:31;9.05;;;6.57;;
29314;SDS011;16320;53.954;9.506;2023-08-06T07:37:36;14.00;;;7.15;;
29314;SDS011;16320;53.954;9.506;2023-08-06T07:40:44;9.43;;;6.78;;
29314;SDS011;16320;53.954;9.506;2023-08-06T07:43:50;11.05;;;6.65;;
29314;SDS011;16320;53.954;9.506;2023-08-06T07:46:54;12.65;;;6.38;;
29314;SDS011;16320;53.954;9.506;2023-08-06T07:50:09;15.45;;;7.90;;
29314;SDS011;16320;53.954;9.506;2023-08-06T07:56:18;9.68;;;6.60;;
29314;SDS011;16320;53.954;9.506;2023-08-06T07:59:23;12.85;;;7.07;;
29314;SDS011;16320;53.954;9.506;2023-08-06T08:02:27;12.55;;;6.70;;
29314;SDS011;16320;53.954;9.506;2023-08-06T08:05:34;12.95;;;7.20;;
29314;SDS011;16320;53.954;9.506;2023-08-06T08:08:39;10.73;;;6.40;;
29314;SDS011;16320;53.954;9.506;2023-08-06T08:11:43;13.18;;;7.82;;
29314;SDS011;16320;53.954;9.506;2023-08-06T08:14:48;11.52;;;7.57;;
29314;SDS011;16320;53.954;9.506;2023-08-06T08:17:53;13.90;;;8.30;;
29314;SDS011;16320;53.954;9.506;2023-08-06T08:20:58;12.48;;;7.88;;
29314;SDS011;16320;53.954;9.506;2023-08-06T08:24:06;12.93;;;7.15;;
29314;SDS011;16320;53.954;9.506;2023-08-06T08:27:12;12.73;;;7.15;;
29314;SDS011;16320;53.954;9.506;2023-08-06T08:30:20;14.65;;;7.75;;
29314;SDS011;16320;53.954;9.506;2023-08-06T08:33:26;10.48;;;6.78;;
29314;SDS011;16320;53.954;9.506;2023-08-06T08:36:30;12.98;;;7.30;;
29314;SDS011;16320;53.954;9.506;2023-08-06T08:39:34;14.27;;;8.00;;
29314;SDS011;16320;53.954;9.506;2023-08-06T08:42:39;11.65;;;7.10;;
29314;SDS011;16320;53.954;9.506;2023-08-06T08:45:43;15.23;;;7.65;;
29314;SDS011;16320;53.954;9.506;2023-08-06T08:48:54;12.55;;;7.32;;
29314;SDS011;16320;53.954;9.506;2023-08-06T08:52:01;10.07;;;7.22;;
29314;SDS011;16320;53.954;9.506;2023-08-06T08:55:14;16.20;;;8.68;;
29314;SDS011;16320;53.954;9.506;2023-08-06T08:58:20;11.43;;;7.47;;
29314;SDS011;16320;53.954;9.506;2023-08-06T09:01:25;18.83;;;8.55;;
29314;SDS011;16320;53.954;9.506;2023-08-06T09:04:32;10.20;;;7.55;;
29314;SDS011;16320;53.954;9.506;2023-08-06T09:07:42;13.00;;;7.70;;
29314;SDS011;16320;53.954;9.506;2023-08-06T09:10:50;13.25;;;7.68;;
29314;SDS011;16320;53.954;9.506;2023-08-06T09:13:57;13.15;;;7.55;;
29314;SDS011;16320;53.954;9.506;2023-08-06T09:17:03;13.85;;;8.43;;
29314;SDS011;16320;53.954;9.506;2023-08-06T09:20:09;10.63;;;7.82;;
29314;SDS011;16320;53.954;9.506;2023-08-06T09:23:19;16.02;;;8.88;;
29314;SDS011;16320;53.954;9.506;2023-08-06T09:26:32;11.82;;;7.95;;
29314;SDS011;16320;53.954;9.506;2023-08-06T09:29:42;10.70;;;8.80;;
29314;SDS011;16320;53.954;9.506;2023-08-06T09:32:50;15.63;;;8.38;;
29314;SDS011;16320;53.954;9.506;2023-08-06T09:35:55;11.73;;;8.48;;
29314;SDS011;16320;53.954;9.506;2023-08-06T09:39:00;15.85;;;9.60;;
29314;SDS011;16320;53.954;9.506;2023-08-06T09:42:15;16.08;;;10.20;;
29314;SDS011;16320;53.954;9.506;2023-08-06T09:45:20;16.40;;;10.13;;
29314;SDS011;16320;53.954;9.506;2023-08-06T09:48:28;14.13;;;10.13;;
29314;SDS011;16320;53.954;9.506;2023-08-06T09:51:32;15.65;;;9.38;;
29314;SDS011;16320;53.954;9.506;2023-08-06T09:54:44;17.88;;;10.30;;
29314;SDS011;16320;53.954;9.506;2023-08-06T09:57:49;14.50;;;10.32;;
29314;SDS011;16320;53.954;9.506;2023-08-06T10:00:54;14.02;;;9.63;;
29314;SDS011;16320;53.954;9.506;2023-08-06T10:04:00;14.85;;;10.20;;
29314;SDS011;16320;53.954;9.506;2023-08-06T10:07:25;15.73;;;10.60;;
29314;SDS011;16320;53.954;9.506;2023-08-06T10:10:32;16.70;;;10.35;;
29314;SDS011;16320;53.954;9.506;2023-08-06T10:13:37;19.10;;;10.48;;
29314;SDS011;16320;53.954;9.506;2023-08-06T10:16:43;12.10;;;9.43;;
29314;SDS011;16320;53.954;9.506;2023-08-06T10:19:48;15.13;;;10.13;;
29314;SDS011;16320;53.954;9.506;2023-08-06T10:23:03;13.57;;;9.15;;
29314;SDS011;16320;53.954;9.506;2023-08-06T10:26:10;19.13;;;10.15;;
29314;SDS011;16320;53.954;9.506;2023-08-06T10:29:49;22.45;;;10.60;;
29314;SDS011;16320;53.954;9.506;2023-08-06T10:32:47;13.20;;;9.40;;
29314;SDS011;16320;53.954;9.506;2023-08-06T10:35:53;17.33;;;9.82;;
29314;SDS011;16320;53.954;9.506;2023-08-06T10:39:05;13.57;;;9.70;;
29314;SDS011;16320;53.954;9.506;2023-08-06T10:42:19;14.00;;;9.05;;
29314;SDS011;16320;53.954;9.506;2023-08-06T10:45:25;16.45;;;9.05;;
29314;SDS011;16320;53.954;9.506;2023-08-06T10:48:39;13.70;;;9.02;;
29314;SDS011;16320;53.954;9.506;2023-08-06T10:51:46;17.08;;;10.30;;
29314;SDS011;16320;53.954;9.506;2023-08-06T10:54:50;14.40;;;9.13;;
29314;SDS011;16320;53.954;9.506;2023-08-06T10:57:57;13.23;;;8.25;;
29314;SDS011;16320;53.954;9.506;2023-08-06T11:01:02;15.38;;;8.68;;
29314;SDS011;16320;53.954;9.506;2023-08-06T11:04:07;11.27;;;8.00;;
29314;SDS011;16320;53.954;9.506;2023-08-06T11:07:13;11.68;;;8.35;;
29314;SDS011;16320;53.954;9.506;2023-08-06T11:10:20;14.90;;;8.25;;
29314;SDS011;16320;53.954;9.506;2023-08-06T11:13:25;14.73;;;8.07;;
29314;SDS011;16320;53.954;9.506;2023-08-06T11:16:31;14.30;;;7.78;;
29314;SDS011;16320;53.954;9.506;2023-08-06T11:19:36;10.07;;;6.65;;
29314;SDS011;16320;53.954;9.506;2023-08-06T11:22:41;9.68;;;6.47;;
29314;SDS011;16320;53.954;9.506;2023-08-06T11:25:45;11.18;;;7.32;;
29314;SDS011;16320;53.954;9.506;2023-08-06T11:28:49;15.98;;;8.15;;
29314;SDS011;16320;53.954;9.506;2023-08-06T11:32:02;10.98;;;7.18;;
29314;SDS011;16320;53.954;9.506;2023-08-06T11:35:12;11.88;;;7.25;;
29314;SDS011;16320;53.954;9.506;2023-08-06T11:38:17;12.23;;;7.25;;
29314;SDS011;16320;53.954;9.506;2023-08-06T11:41:22;12.23;;;7.03;;
29314;SDS011;16320;53.954;9.506;2023-08-06T11:44:26;12.55;;;7.57;;
29314;SDS011;16320;53.954;9.506;2023-08-06T11:47:38;12.70;;;7.28;;
29314;SDS011;16320;53.954;9.506;2023-08-06T11:50:46;16.48;;;7.38;;
29314;SDS011;16320;53.954;9.506;2023-08-06T11:53:51;8.70;;;6.80;;
29314;SDS011;16320;53.954;9.506;2023-08-06T11:57:04;12.45;;;6.80;;
29314;SDS011;16320;53.954;9.506;2023-08-06T12:00:10;13.50;;;6.75;;
29314;SDS011;16320;53.954;9.506;2023-08-06T12:03:18;9.35;;;6.82;;
29314;SDS011;16320;53.954;9.506;2023-08-06T12:06:26;16.77;;;6.72;;
29314;SDS011;16320;53.954;9.506;2023-08-06T12:09:31;24.17;;;7.15;;
29314;SDS011;16320;53.954;9.506;2023-08-06T12:12:36;16.30;;;6.68;;
29314;SDS011;16320;53.954;9.506;2023-08-06T12:15:42;12.68;;;6.50;;
29314;SDS011;16320;53.954;9.506;2023-08-06T12:18:47;16.30;;;6.80;;
29314;SDS011;16320;53.954;9.506;2023-08-06T12:21:53;10.93;;;7.75;;
29314;SDS011;16320;53.954;9.506;2023-08-06T12:24:58;15.07;;;7.05;;
29314;SDS011;16320;53.954;9.506;2023-08-06T12:28:02;11.00;;;7.35;;
29314;SDS011;16320;53.954;9.506;2023-08-06T12:31:09;8.98;;;6.45;;
29314;SDS011;16320;53.954;9.506;2023-08-06T12:34:14;14.80;;;7.22;;
29314;SDS011;16320;53.954;9.506;2023-08-06T12:37:19;12.98;;;6.32;;
29314;SDS011;16320;53.954;9.506;2023-08-06T12:40:25;17.58;;;7.13;;
29314;SDS011;16320;53.954;9.506;2023-08-06T12:43:41;10.80;;;6.65;;
29314;SDS011;16320;53.954;9.506;2023-08-06T12:46:45;10.75;;;6.65;;
29314;SDS011;16320;53.954;9.506;2023-08-06T12:49:50;11.18;;;6.97;;
29314;SDS011;16320;53.954;9.506;2023-08-06T12:52:54;14.50;;;7.13;;
29314;SDS011;16320;53.954;9.506;2023-08-06T12:55:59;12.60;;;7.47;;
29314;SDS011;16320;53.954;9.506;2023-08-06T12:59:04;10.90;;;7.57;;
29314;SDS011;16320;53.954;9.506;2023-08-06T13:02:09;18.13;;;7.82;;
29314;SDS011;16320;53.954;9.506;2023-08-06T13:05:13;15.40;;;8.10;;
29314;SDS011;16320;53.954;9.506;2023-08-06T13:11:48;16.80;;;8.23;;
29314;SDS011;16320;53.954;9.506;2023-08-06T13:14:54;27.17;;;8.73;;
29314;SDS011;16320;53.954;9.506;2023-08-06T13:18:01;14.15;;;7.00;;
29314;SDS011;16320;53.954;9.506;2023-08-06T13:21:06;17.85;;;6.75;;
29314;SDS011;16320;53.954;9.506;2023-08-06T13:24:10;14.05;;;7.15;;
29314;SDS011;16320;53.954;9.506;2023-08-06T13:27:15;11.70;;;6.78;;
29314;SDS011;16320;53.954;9.506;2023-08-06T13:30:19;14.90;;;7.30;;
29314;SDS011;16320;53.954;9.506;2023-08-06T13:33:25;13.93;;;8.45;;
29314;SDS011;16320;53.954;9.506;2023-08-06T13:36:30;12.15;;;7.28;;
29314;SDS011;16320;53.954;9.506;2023-08-06T13:39:35;14.98;;;8.00;;
29314;SDS011;16320;53.954;9.506;2023-08-06T13:42:39;17.10;;;8.50;;
29314;SDS011;16320;53.954;9.506;2023-08-06T13:45:44;14.63;;;8.23;;
29314;SDS011;16320;53.954;9.506;2023-08-06T13:48:49;12.27;;;7.72;;
29314;SDS011;16320;53.954;9.506;2023-08-06T13:51:55;15.35;;;8.65;;
29314;SDS011;16320;53.954;9.506;2023-08-06T13:55:14;13.10;;;8.63;;
29314;SDS011;16320;53.954;9.506;2023-08-06T13:58:20;20.40;;;9.57;;
29314;SDS011;16320;53.954;9.506;2023-08-06T14:01:24;13.77;;;8.48;;
29314;SDS011;16320;53.954;9.506;2023-08-06T14:04:49;17.65;;;9.07;;
29314;SDS011;16320;53.954;9.506;2023-08-06T14:07:53;17.52;;;10.10;;
29314;SDS011;16320;53.954;9.506;2023-08-06T14:10:58;15.88;;;9.10;;
29314;SDS011;16320;53.954;9.506;2023-08-06T14:14:03;20.80;;;8.60;;
29314;SDS011;16320;53.954;9.506;2023-08-06T14:17:08;21.83;;;9.23;;
29314;SDS011;16320;53.954;9.506;2023-08-06T14:20:12;12.63;;;8.10;;
29314;SDS011;16320;53.954;9.506;2023-08-06T14:23:17;22.83;;;9.73;;
29314;SDS011;16320;53.954;9.506;2023-08-06T14:26:21;16.05;;;9.68;;
29314;SDS011;16320;53.954;9.506;2023-08-06T14:29:26;17.80;;;9.48;;
29314;SDS011;16320;53.954;9.506;2023-08-06T14:32:31;16.45;;;9.75;;
29314;SDS011;16320;53.954;9.506;2023-08-06T14:35:37;19.63;;;8.82;;
29314;SDS011;16320;53.954;9.506;2023-08-06T14:38:41;25.67;;;8.52;;
29314;SDS011;16320;53.954;9.506;2023-08-06T14:42:03;13.93;;;7.60;;
29314;SDS011;16320;53.954;9.506;2023-08-06T14:45:09;13.55;;;7.40;;
29314;SDS011;16320;53.954;9.506;2023-08-06T14:48:14;11.02;;;7.35;;
29314;SDS011;16320;53.954;9.506;2023-08-06T14:51:19;10.88;;;6.60;;
29314;SDS011;16320;53.954;9.506;2023-08-06T14:54:24;9.88;;;6.93;;
29314;SDS011;16320;53.954;9.506;2023-08-06T14:57:30;14.25;;;7.90;;
29314;SDS011;16320;53.954;9.506;2023-08-06T15:00:35;12.75;;;8.07;;
29314;SDS011;16320;53.954;9.506;2023-08-06T15:06:44;10.00;;;7.45;;
29314;SDS011;16320;53.954;9.506;2023-08-06T15:09:48;11.35;;;7.25;;
29314;SDS011;16320;53.954;9.506;2023-08-06T15:12:58;17.55;;;7.40;;
29314;SDS011;16320;53.954;9.506;2023-08-06T15:16:03;9.75;;;6.68;;
29314;SDS011;16320;53.954;9.506;2023-08-06T15:19:08;14.93;;;6.75;;
29314;SDS011;16320;53.954;9.506;2023-08-06T15:22:13;14.00;;;6.88;;
29314;SDS011;16320;53.954;9.506;2023-08-06T15:25:17;10.43;;;7.03;;
29314;SDS011;16320;53.954;9.506;2023-08-06T15:28:21;11.85;;;6.68;;
29314;SDS011;16320;53.954;9.506;2023-08-06T15:31:35;13.88;;;6.20;;
29314;SDS011;16320;53.954;9.506;2023-08-06T15:34:41;12.48;;;6.35;;
29314;SDS011;16320;53.954;9.506;2023-08-06T15:40:50;8.48;;;5.60;;
29314;SDS011;16320;53.954;9.506;2023-08-06T15:43:54;8.15;;;6.05;;
29314;SDS011;16320;53.954;9.506;2023-08-06T15:46:59;9.77;;;5.40;;
29314;SDS011;16320;53.954;9.506;2023-08-06T15:50:03;13.25;;;5.82;;
29314;SDS011;16320;53.954;9.506;2023-08-06T15:53:08;11.40;;;7.07;;
29314;SDS011;16320;53.954;9.506;2023-08-06T15:56:14;9.65;;;5.47;;
29314;SDS011;16320;53.954;9.506;2023-08-06T15:59:26;9.45;;;5.97;;
29314;SDS011;16320;53.954;9.506;2023-08-06T16:02:34;8.60;;;5.57;;
29314;SDS011;16320;53.954;9.506;2023-08-06T16:05:38;7.82;;;5.75;;
29314;SDS011;16320;53.954;9.506;2023-08-06T16:08:45;10.70;;;5.57;;
29314;SDS011;16320;53.954;9.506;2023-08-06T16:11:49;10.73;;;5.53;;
29314;SDS011;16320;53.954;9.506;2023-08-06T16:14:55;12.38;;;5.43;;
29314;SDS011;16320;53.954;9.506;2023-08-06T16:17:59;7.72;;;5.97;;
29314;SDS011;16320;53.954;9.506;2023-08-06T16:21:04;8.30;;;5.63;;
29314;SDS011;16320;53.954;9.506;2023-08-06T16:24:08;11.10;;;5.97;;
29314;SDS011;16320;53.954;9.506;2023-08-06T16:27:13;10.23;;;5.55;;
29314;SDS011;16320;53.954;9.506;2023-08-06T16:30:17;12.40;;;5.88;;
29314;SDS011;16320;53.954;9.506;2023-08-06T16:33:22;8.05;;;5.80;;
29314;SDS011;16320;53.954;9.506;2023-08-06T16:36:26;8.48;;;5.22;;
29314;SDS011;16320;53.954;9.506;2023-08-06T16:39:31;11.90;;;5.07;;
29314;SDS011;16320;53.954;9.506;2023-08-06T16:42:36;9.38;;;5.25;;
29314;SDS011;16320;53.954;9.506;2023-08-06T16:45:40;12.27;;;5.05;;
29314;SDS011;16320;53.954;9.506;2023-08-06T16:48:45;8.77;;;5.18;;
29314;SDS011;16320;53.954;9.506;2023-08-06T16:51:50;11.48;;;6.28;;
29314;SDS011;16320;53.954;9.506;2023-08-06T16:54:55;8.55;;;5.68;;
29314;SDS011;16320;53.954;9.506;2023-08-06T16:58:00;9.13;;;4.78;;
29314;SDS011;16320;53.954;9.506;2023-08-06T17:01:04;8.45;;;4.65;;
29314;SDS011;16320;53.954;9.506;2023-08-06T17:04:09;14.07;;;5.28;;
29314;SDS011;16320;53.954;9.506;2023-08-06T17:07:15;8.93;;;5.50;;
29314;SDS011;16320;53.954;9.506;2023-08-06T17:10:19;9.77;;;5.13;;
29314;SDS011;16320;53.954;9.506;2023-08-06T17:13:26;6.70;;;5.07;;
29314;SDS011;16320;53.954;9.506;2023-08-06T17:16:30;9.23;;;5.85;;
29314;SDS011;16320;53.954;9.506;2023-08-06T17:19:35;12.02;;;5.78;;
29314;SDS011;16320;53.954;9.506;2023-08-06T17:22:41;12.32;;;5.22;;
29314;SDS011;16320;53.954;9.506;2023-08-06T17:25:45;7.75;;;5.30;;
29314;SDS011;16320;53.954;9.506;2023-08-06T17:28:50;10.68;;;5.55;;
29314;SDS011;16320;53.954;9.506;2023-08-06T17:31:55;10.25;;;5.07;;
29314;SDS011;16320;53.954;9.506;2023-08-06T17:35:00;6.97;;;4.65;;
29314;SDS011;16320;53.954;9.506;2023-08-06T17:38:04;7.22;;;5.05;;
29314;SDS011;16320;53.954;9.506;2023-08-06T17:41:09;5.90;;;4.72;;
29314;SDS011;16320;53.954;9.506;2023-08-06T17:44:14;6.80;;;4.63;;
29314;SDS011;16320;53.954;9.506;2023-08-06T17:47:19;8.73;;;5.45;;
29314;SDS011;16320;53.954;9.506;2023-08-06T17:50:39;7.38;;;4.88;;
29314;SDS011;16320;53.954;9.506;2023-08-06T17:53:43;7.82;;;4.68;;
29314;SDS011;16320;53.954;9.506;2023-08-06T17:56:48;6.15;;;4.68;;
29314;SDS011;16320;53.954;9.506;2023-08-06T17:59:53;10.13;;;5.38;;
29314;SDS011;16320;53.954;9.506;2023-08-06T18:02:58;9.63;;;5.00;;
29314;SDS011;16320;53.954;9.506;2023-08-06T18:06:03;13.25;;;4.88;;
29314;SDS011;16320;53.954;9.506;2023-08-06T18:09:08;9.77;;;5.43;;
29314;SDS011;16320;53.954;9.506;2023-08-06T18:12:13;9.30;;;5.18;;
29314;SDS011;16320;53.954;9.506;2023-08-06T18:15:17;6.32;;;4.65;;
29314;SDS011;16320;53.954;9.506;2023-08-06T18:18:23;5.70;;;4.45;;
29314;SDS011;16320;53.954;9.506;2023-08-06T18:21:27;11.02;;;5.65;;
29314;SDS011;16320;53.954;9.506;2023-08-06T18:24:32;6.35;;;4.65;;
29314;SDS011;16320;53.954;9.506;2023-08-06T18:27:37;9.90;;;5.28;;
29314;SDS011;16320;53.954;9.506;2023-08-06T18:30:47;9.43;;;4.50;;
29314;SDS011;16320;53.954;9.506;2023-08-06T18:33:52;11.85;;;5.22;;
29314;SDS011;16320;53.954;9.506;2023-08-06T18:36:57;11.40;;;5.28;;
29314;SDS011;16320;53.954;9.506;2023-08-06T18:40:01;7.32;;;4.97;;
29314;SDS011;16320;53.954;9.506;2023-08-06T18:43:07;8.65;;;5.32;;
29314;SDS011;16320;53.954;9.506;2023-08-06T18:46:12;7.63;;;4.30;;
29314;SDS011;16320;53.954;9.506;2023-08-06T18:49:17;7.97;;;5.60;;
29314;SDS011;16320;53.954;9.506;2023-08-06T18:52:21;11.73;;;6.05;;
29314;SDS011;16320;53.954;9.506;2023-08-06T18:55:27;21.98;;;6.43;;
29314;SDS011;16320;53.954;9.506;2023-08-06T18:58:31;15.18;;;7.78;;
29314;SDS011;16320;53.954;9.506;2023-08-06T19:01:35;11.50;;;7.95;;